Huvudsida
METAR-TAF:

METAR-TAF

Flygplatser :

Mwanza, Tanzania

latitud: 02-28S, longitud: 032-55E, höjd: 1139 m

Aktuellt väderrapport

Denna rapport gjordes för 47 minuter sedan, klockan 03:00 UTC
Vind 6 kt från syd/sydost
Temperatur 20°C
Fuktighet 78%
Tryck 1018 hPa
Sikt 10 km eller mer
Få moln på en höjd av 1900 ft
Få moln på en höjd av 2000 ft, Cumulonimbus.

METAR: HTMW 230300Z 15006KT 9999 FEW019 FEW020CB 20/16 Q1018 NOSIG

Tid: 06:47 (03:47 UTC)

Väderprognos

Denna rapport gjordes för 4 timmar och 47 minuter sedan, klockan 23:00 UTC
Prognos gäller från 23 kl. 00 UTC till 23 kl. 24 UTC
Vind 10 kt från ost/sydost
Sikt 10 km eller mer
Få moln på en höjd av 1900 ft
Få moln på en höjd av 2000 ft, Cumulonimbus.
Blir
från 23 kl. 11 UTC till 23 kl. 13 UTC
Vind 10 kt från nordväst
Spridda moln på en höjd av 2500 ft
Få moln på en höjd av 2600 ft, Cumulonimbus.

TAF: HTMW 222300Z 2300/2324 12010KT 9999 FEW019 FEW020CB BECMG 2311/2313 32010KT SCT025 FEW026CB

Aktuella väderrapporter och prognoser från 4000 flygplatser (METAR- och TAF-rapporter).

De tillgängliga stationerna syns som gula och röda prickar på kartan.

För musen över prickarna för att se namnen på stationerna.

Klicka sedan för att få väderrapporter och prognoser.

För att ändra kartan: Klicka på de gröna knapparna med ett svart kors på för att zooma in; den gröna knappen med ett streck på för att zooma ut; eller på de gröna pilarna för angränsande kartor.


METAR-TAF: